Time;durP1;ratioP1;P1;durP2;ratioP2;P2;SDS_P1;SDS_P2;PMS_P1;PMS_P2;Temp;Humidity;BMP_temperature;BMP_pressure;BME280_temperature;BME280_humidity;BME280_pressure;Samples;Min_cycle;Max_cycle;Signal;HPM_P1;HPM_P2
2022/08/02 00:01:25;;;;;;;5.38;2.10;;;14.50;99.90;;;;;;5005742;28;20207;-76
2022/08/02 00:03:51;;;;;;;4.43;2.08;;;14.40;99.90;;;;;;5006848;28;20187;-79
2022/08/02 00:06:17;;;;;;;3.40;2.13;;;14.20;99.90;;;;;;5006891;28;20345;-77
2022/08/02 00:08:42;;;;;;;5.38;2.55;;;14.10;99.90;;;;;;5007023;28;20182;-78
2022/08/02 00:11:08;;;;;;;5.57;2.60;;;14.00;99.90;;;;;;5005859;28;20199;-78
2022/08/02 00:13:33;;;;;;;6.35;2.63;;;14.00;99.90;;;;;;5007273;28;20183;-78
2022/08/02 00:15:59;;;;;;;4.97;2.00;;;13.90;99.90;;;;;;5006734;28;20180;-78
2022/08/02 00:18:24;;;;;;;4.25;2.58;;;13.70;99.90;;;;;;5006828;28;20191;-78
2022/08/02 00:20:50;;;;;;;4.20;2.30;;;13.50;99.90;;;;;;5006414;28;20203;-78
2022/08/02 00:23:16;;;;;;;4.88;2.35;;;13.30;99.90;;;;;;5005499;28;20206;-77
2022/08/02 00:25:41;;;;;;;4.65;2.53;;;13.20;99.90;;;;;;5004935;28;20180;-78
2022/08/02 00:28:07;;;;;;;4.97;3.00;;;13.10;99.90;;;;;;5004049;28;20190;-76
2022/08/02 00:30:33;;;;;;;6.28;3.05;;;13.20;99.90;;;;;;5003640;28;20172;-77
2022/08/02 00:32:58;;;;;;;1999.90;999.90;;;13.20;99.90;;;;;;5002070;28;20204;-77
2022/08/02 00:35:24;;;;;;;3.72;2.47;;;13.20;99.90;;;;;;5003688;28;20199;-76
2022/08/02 00:37:49;;;;;;;2.72;2.40;;;13.30;99.90;;;;;;5006297;28;20183;-77
2022/08/02 00:40:19;;;;;;;4.35;2.40;;;13.30;99.90;;;;;;5006970;28;20218;-78
2022/08/02 00:42:45;;;;;;;4.28;2.55;;;13.30;99.90;;;;;;5006240;28;20207;-78
2022/08/02 00:45:10;;;;;;;5.60;2.50;;;13.30;99.90;;;;;;5004756;28;20237;-78
2022/08/02 00:47:36;;;;;;;4.10;2.70;;;13.30;99.90;;;;;;5004890;28;20550;-79
2022/08/02 00:50:02;;;;;;;8.02;2.95;;;13.30;99.90;;;;;;5004613;28;20270;-76
2022/08/02 00:52:28;;;;;;;4.85;2.20;;;13.30;99.90;;;;;;5004525;28;20199;-78
2022/08/02 00:54:54;;;;;;;4.53;2.38;;;13.10;99.90;;;;;;5006050;28;20966;-78
2022/08/02 00:57:19;;;;;;;5.35;2.58;;;13.00;99.90;;;;;;5005585;28;20183;-78
2022/08/02 00:59:45;;;;;;;4.97;2.67;;;13.10;99.90;;;;;;5004963;28;20257;-78
2022/08/02 01:02:10;;;;;;;4.47;2.47;;;13.10;99.90;;;;;;5006208;28;20818;-78
2022/08/02 01:04:36;;;;;;;3.55;2.65;;;13.00;99.90;;;;;;5006267;28;20194;-79
2022/08/02 01:07:04;;;;;;;3.35;2.10;;;13.10;99.90;;;;;;5005720;28;20180;-76
2022/08/02 01:09:29;;;;;;;6.70;2.60;;;13.00;99.90;;;;;;5006358;28;20184;-76
2022/08/02 01:11:55;;;;;;;6.38;2.75;;;12.90;99.90;;;;;;5004797;28;20225;-78
2022/08/02 01:14:23;;;;;;;4.90;2.50;;;12.90;99.90;;;;;;5005817;28;20186;-77
2022/08/02 01:16:56;;;;;;;4.18;2.83;;;13.00;99.90;;;;;;5005343;28;20600;-78
2022/08/02 01:19:36;;;;;;;2.53;2.30;;;12.90;99.90;;;;;;5004256;28;20201;-76
2022/08/02 01:22:29;;;;;;;9.13;3.05;;;12.80;99.90;;;;;;5004571;28;20334;-77
2022/08/02 01:25:32;;;;;;;4.78;2.63;;;12.80;99.90;;;;;;5005038;28;20736;-77
2022/08/02 01:28:31;;;;;;;4.78;2.75;;;12.80;99.90;;;;;;5003871;28;20255;-78
2022/08/02 01:31:22;;;;;;;5.82;2.90;;;12.80;99.90;;;;;;5005146;28;20180;-78
2022/08/02 01:34:11;;;;;;;3.20;2.42;;;12.60;99.90;;;;;;5004665;28;20242;-78
2022/08/02 01:36:43;;;;;;;3.38;2.28;;;12.40;99.90;;;;;;5004415;28;20225;-77
2022/08/02 01:39:13;;;;;;;1999.90;999.90;;;12.40;99.90;;;;;;5003892;28;20192;-78
2022/08/02 01:41:40;;;;;;;1999.90;999.90;;;12.40;99.90;;;;;;5004884;28;20305;-78
2022/08/02 01:44:07;;;;;;;479.88;208.10;;;12.50;99.90;;;;;;5003132;28;20179;-78
2022/08/02 01:46:34;;;;;;;1019.90;517.72;;;12.50;99.90;;;;;;5005298;28;20869;-77
2022/08/02 01:49:08;;;;;;;46.55;32.92;;;12.50;99.90;;;;;;5004620;28;20194;-78
2022/08/02 01:54:23;;;;;;;5.25;2.60;;;12.50;99.90;;;;;;5005623;28;20186;-77
2022/08/02 01:56:50;;;;;;;1999.90;999.90;;;12.50;99.90;;;;;;5003930;28;20184;-78
2022/08/02 01:59:20;;;;;;;5.47;2.83;;;12.50;99.90;;;;;;5003850;28;20266;-78
2022/08/02 02:01:48;;;;;;;3.58;2.17;;;12.40;99.90;;;;;;5004555;28;20298;-77
2022/08/02 02:04:15;;;;;;;2.28;2.05;;;12.30;99.90;;;;;;5004659;28;20673;-77
2022/08/02 02:06:43;;;;;;;5.47;2.50;;;12.30;99.90;;;;;;5004278;28;20203;-78
2022/08/02 02:09:11;;;;;;;3.88;2.30;;;12.30;99.90;;;;;;5002655;28;20221;-77
2022/08/02 02:11:39;;;;;;;6.10;2.30;;;12.30;99.90;;;;;;5004372;28;20219;-78
2022/08/02 02:14:07;;;;;;;7.50;2.50;;;12.20;99.90;;;;;;5008041;28;20688;-78
2022/08/02 02:16:33;;;;;;;4.13;2.30;;;12.20;99.90;;;;;;5008284;28;20230;-78
2022/08/02 02:19:01;;;;;;;3.60;2.30;;;12.10;99.90;;;;;;5007937;28;20195;-78
2022/08/02 02:21:27;;;;;;;4.85;2.38;;;12.10;99.90;;;;;;5008159;28;20739;-77
2022/08/02 02:23:53;;;;;;;4.68;2.38;;;12.10;99.90;;;;;;5008112;28;20187;-78
2022/08/02 02:26:19;;;;;;;4.80;2.33;;;12.10;99.90;;;;;;5008384;28;20179;-78
2022/08/02 02:28:46;;;;;;;5.85;2.42;;;12.10;99.90;;;;;;5008883;28;20223;-78
2022/08/02 02:31:15;;;;;;;4.25;2.90;;;12.10;99.90;;;;;;5008210;28;20183;-78
2022/08/02 02:33:51;;;;;;;4.43;2.42;;;12.20;99.90;;;;;;5008968;28;20197;-77
2022/08/02 02:36:19;;;;;;;7.90;2.67;;;12.20;99.90;;;;;;5008445;28;20808;-78
2022/08/02 02:38:47;;;;;;;2.97;2.28;;;12.10;99.90;;;;;;5007755;28;20180;-77
2022/08/02 02:41:14;;;;;;;4.97;2.60;;;12.10;99.90;;;;;;5005895;28;20211;-77
2022/08/02 02:43:42;;;;;;;8.00;2.90;;;12.40;99.90;;;;;;5007393;28;20176;-76
2022/08/02 02:46:09;;;;;;;2.53;2.10;;;11.90;99.90;;;;;;5007237;28;20274;-78
2022/08/02 02:48:36;;;;;;;4.95;3.08;;;11.80;99.90;;;;;;5005750;28;20183;-78
2022/08/02 02:51:04;;;;;;;5.00;2.75;;;11.80;99.90;;;;;;5007564;28;20207;-78
2022/08/02 02:53:30;;;;;;;5.47;2.72;;;11.80;99.90;;;;;;5007879;28;20282;-78
2022/08/02 02:55:56;;;;;;;5.60;2.50;;;11.90;99.90;;;;;;5006422;28;20282;-77
2022/08/02 02:58:23;;;;;;;6.47;2.63;;;11.90;99.90;;;;;;5007293;28;20243;-78
2022/08/02 03:03:34;;;;;;;2.95;2.38;;;11.80;99.90;;;;;;5006535;28;20183;-77
2022/08/02 03:05:59;;;;;;;3.90;2.40;;;11.70;99.90;;;;;;5005796;28;20243;-76
2022/08/02 03:08:25;;;;;;;4.93;2.65;;;11.60;99.90;;;;;;5005636;28;20304;-77
2022/08/02 03:10:51;;;;;;;6.70;2.50;;;11.80;99.90;;;;;;5005882;28;20202;-77
2022/08/02 03:13:18;;;;;;;3.60;2.50;;;11.70;99.90;;;;;;5007227;28;20627;-78
2022/08/02 03:15:45;;;;;;;5.53;2.30;;;11.70;99.90;;;;;;5005604;28;20191;-78
2022/08/02 03:18:32;;;;;;;3.80;2.70;;;11.60;99.90;;;;;;5005991;28;20176;-77
2022/08/02 03:21:04;;;;;;;4.25;2.50;;;11.70;99.90;;;;;;5006716;28;20389;-78
2022/08/02 03:23:29;;;;;;;3.38;2.33;;;11.70;99.90;;;;;;5003700;28;20282;-77
2022/08/02 03:25:55;;;;;;;4.35;2.45;;;11.70;99.90;;;;;;5007750;28;20859;-77
2022/08/02 03:28:21;;;;;;;3.67;2.45;;;11.70;99.90;;;;;;5005707;28;20186;-78
2022/08/02 03:30:46;;;;;;;6.38;2.80;;;11.80;99.90;;;;;;5006609;28;20564;-78
2022/08/02 03:33:12;;;;;;;4.90;2.53;;;11.80;99.90;;;;;;5007673;28;20274;-79
2022/08/02 03:35:40;;;;;;;3.22;2.28;;;11.90;99.90;;;;;;5007614;28;20576;-77
2022/08/02 03:38:06;;;;;;;5.10;2.95;;;11.80;99.90;;;;;;5006990;28;20792;-77
2022/08/02 03:40:32;;;;;;;3.95;2.35;;;11.80;99.90;;;;;;5005133;28;20215;-78
2022/08/02 03:43:00;;;;;;;4.70;2.50;;;11.90;99.90;;;;;;5005568;28;20512;-78
2022/08/02 03:45:26;;;;;;;3.78;2.42;;;11.90;99.90;;;;;;5006651;28;20171;-78
2022/08/02 03:47:51;;;;;;;4.80;2.60;;;11.90;99.90;;;;;;5005753;28;20216;-78
2022/08/02 03:50:18;;;;;;;3.50;2.30;;;11.90;99.90;;;;;;5007212;28;20203;-77
2022/08/02 03:52:46;;;;;;;4.50;2.33;;;11.90;99.90;;;;;;5006293;28;20203;-78
2022/08/02 03:55:12;;;;;;;5.70;2.60;;;11.90;99.90;;;;;;5005758;28;20553;-77
2022/08/02 03:57:39;;;;;;;4.00;2.70;;;11.90;99.90;;;;;;5004387;28;20179;-77
2022/08/02 04:00:05;;;;;;;5.25;2.58;;;12.10;99.90;;;;;;5004886;28;20638;-77
2022/08/02 04:02:31;;;;;;;2.90;2.45;;;12.20;99.90;;;;;;5002474;28;20451;-77
2022/08/02 04:04:57;;;;;;;4.22;2.58;;;12.30;99.90;;;;;;5004058;28;20729;-78
2022/08/02 04:07:22;;;;;;;2.75;2.15;;;12.40;99.90;;;;;;5006510;28;20200;-78
2022/08/02 04:09:48;;;;;;;5.75;2.95;;;12.40;99.90;;;;;;5007191;28;20244;-77
2022/08/02 04:12:13;;;;;;;6.18;2.33;;;12.40;99.90;;;;;;5006347;28;20204;-78
2022/08/02 04:14:39;;;;;;;6.22;2.58;;;12.50;99.90;;;;;;5006846;28;20183;-80
2022/08/02 04:17:07;;;;;;;4.72;2.55;;;12.70;99.90;;;;;;5004549;28;20195;-78
2022/08/02 04:19:46;;;;;;;4.03;2.47;;;12.70;99.90;;;;;;5006421;28;20475;-79
2022/08/02 04:22:26;;;;;;;3.42;2.42;;;12.90;99.90;;;;;;5006496;28;20575;-79
2022/08/02 04:24:57;;;;;;;3.53;2.25;;;13.00;99.90;;;;;;5006635;28;20182;-78
2022/08/02 04:27:23;;;;;;;4.47;2.40;;;13.10;99.90;;;;;;5006565;28;20172;-78
2022/08/02 04:29:49;;;;;;;4.63;2.30;;;13.20;99.90;;;;;;5006227;28;20183;-78
2022/08/02 04:32:16;;;;;;;3.42;1.98;;;13.20;99.90;;;;;;5006181;28;20281;-78
2022/08/02 04:34:43;;;;;;;4.38;2.50;;;13.10;99.90;;;;;;5005462;28;20181;-77
2022/08/02 04:37:11;;;;;;;4.75;2.30;;;13.60;99.90;;;;;;5005827;28;20266;-77
2022/08/02 04:39:37;;;;;;;5.35;2.30;;;13.30;99.90;;;;;;5004557;28;20180;-77
2022/08/02 04:42:02;;;;;;;3.83;2.17;;;13.40;99.90;;;;;;5005545;28;20208;-78
2022/08/02 04:44:28;;;;;;;2.70;2.00;;;14.30;99.90;;;;;;5005327;28;20267;-78
2022/08/02 04:46:54;;;;;;;6.72;2.60;;;13.80;99.90;;;;;;5006638;28;20212;-78
2022/08/02 04:49:20;;;;;;;5.80;2.70;;;13.50;99.90;;;;;;5006368;28;20634;-77
2022/08/02 04:51:46;;;;;;;6.38;2.80;;;13.30;99.90;;;;;;5005240;28;20207;-78
2022/08/02 04:54:11;;;;;;;4.68;2.53;;;13.30;99.90;;;;;;5005875;28;20560;-78
2022/08/02 04:56:38;;;;;;;3.83;2.67;;;13.10;99.90;;;;;;5006051;28;20849;-78
2022/08/02 04:59:04;;;;;;;3.08;2.45;;;13.20;99.90;;;;;;5003421;28;20565;-78
2022/08/02 05:01:30;;;;;;;4.93;2.17;;;13.20;99.90;;;;;;5004788;28;20211;-77
2022/08/02 05:03:55;;;;;;;5.00;2.55;;;13.40;99.90;;;;;;5005379;28;20183;-78
2022/08/02 05:06:21;;;;;;;4.72;2.40;;;13.40;99.90;;;;;;5004262;28;20168;-78
2022/08/02 05:08:47;;;;;;;5.22;2.30;;;13.50;99.90;;;;;;5004812;28;20187;-78
2022/08/02 05:11:12;;;;;;;4.38;2.60;;;13.70;94.10;;;;;;5005649;28;20222;-78
2022/08/02 05:13:40;;;;;;;4.88;2.53;;;13.70;85.50;;;;;;5005245;28;20222;-78
2022/08/02 05:16:06;;;;;;;3.63;2.72;;;13.70;67.00;;;;;;5010650;28;20225;-77
2022/08/02 05:18:31;;;;;;;4.80;2.33;;;13.70;73.10;;;;;;5005624;28;20184;-78
2022/08/02 05:20:57;;;;;;;3.58;2.00;;;13.90;46.40;;;;;;5005185;28;20334;-78
2022/08/02 05:23:23;;;;;;;4.90;2.40;;;14.60;12.40;;;;;;5006027;28;20278;-78
2022/08/02 05:25:48;;;;;;;3.53;2.20;;;15.40;1.00;;;;;;5004791;28;20559;-77
2022/08/02 05:28:14;;;;;;;6.20;2.33;;;16.10;1.00;;;;;;5005483;28;21276;-79
2022/08/02 05:30:40;;;;;;;2.65;1.92;;;16.50;1.00;;;;;;5005673;28;20179;-77
2022/08/02 05:33:05;;;;;;;5.45;1.77;;;17.10;99.90;;;;;;5005938;28;20215;-78
2022/08/02 05:35:32;;;;;;;3.67;2.00;;;17.20;99.90;;;;;;5005993;28;20202;-77
2022/08/02 05:37:57;;;;;;;4.50;2.35;;;17.20;99.90;;;;;;5005247;28;20188;-78
2022/08/02 05:40:23;;;;;;;5.20;1.80;;;17.50;99.90;;;;;;5006082;28;20184;-79
2022/08/02 05:42:48;;;;;;;6.53;2.20;;;18.30;1.00;;;;;;5003805;28;20199;-79
2022/08/02 05:45:14;;;;;;;4.93;2.05;;;18.70;99.90;;;;;;5005999;28;20190;-78
2022/08/02 05:47:40;;;;;;;6.82;2.17;;;19.00;1.00;;;;;;5003694;28;20361;-76
2022/08/02 05:50:07;;;;;;;4.28;1.80;;;19.20;1.00;;;;;;5006241;28;20190;-77
2022/08/02 05:52:47;;;;;;;3.83;1.75;;;19.60;1.00;;;;;;5006299;28;20210;-78
2022/08/02 05:55:17;;;;;;;3.55;1.90;;;20.20;99.90;;;;;;5005821;28;20179;-77
2022/08/02 05:58:03;;;;;;;5.90;2.10;;;20.10;99.90;;;;;;5005674;28;20653;-78
2022/08/02 06:00:30;;;;;;;3.72;1.92;;;19.80;1.00;;;;;;5006235;28;20238;-78
2022/08/02 06:03:22;;;;;;;3.63;2.10;;;19.60;99.90;;;;;;5006767;28;20219;-76
2022/08/02 06:06:16;;;;;;;5.93;1.80;;;19.70;1.00;;;;;;5006482;28;20246;-78
2022/08/02 06:08:45;;;;;;;4.97;1.90;;;19.70;99.90;;;;;;5001816;28;20210;-78
2022/08/02 06:11:15;;;;;;;5.22;1.80;;;20.00;99.90;;;;;;5006166;28;20287;-78
2022/08/02 06:13:42;;;;;;;4.43;1.50;;;20.30;1.00;;;;;;5006278;28;20183;-77
2022/08/02 06:16:08;;;;;;;9.70;2.47;;;20.80;99.90;;;;;;5005951;28;20262;-79
2022/08/02 06:18:35;;;;;;;6.47;2.20;;;21.20;1.00;;;;;;5006148;28;20179;-78
2022/08/02 06:21:03;;;;;;;11.38;2.28;;;21.50;99.90;;;;;;5005857;28;20298;-79
2022/08/02 06:23:29;;;;;;;6.05;1.92;;;22.30;1.00;;;;;;5001691;28;20207;-77
2022/08/02 06:25:59;;;;;;;4.18;1.85;;;22.90;99.90;;;;;;5005375;28;20180;-78
2022/08/02 06:28:25;;;;;;;5.22;1.75;;;23.60;1.00;;;;;;5004993;28;20184;-78
2022/08/02 06:30:51;;;;;;;5.90;1.85;;;23.30;1.00;;;;;;5004803;28;20390;-78
2022/08/02 06:33:17;;;;;;;6.57;2.00;;;23.50;1.00;;;;;;5004920;28;20562;-76
2022/08/02 06:35:47;;;;;;;6.55;2.03;;;23.40;1.00;;;;;;5005789;28;20267;-79
2022/08/02 06:38:26;;;;;;;5.55;1.80;;;23.90;1.00;;;;;;5004015;28;20180;-78
2022/08/02 06:41:04;;;;;;;4.45;2.15;;;24.30;99.90;;;;;;5006207;28;20868;-79
2022/08/02 06:43:45;;;;;;;5.40;1.65;;;24.30;99.90;;;;;;5004863;28;20254;-78
2022/08/02 06:46:11;;;;;;;5.28;2.10;;;23.80;99.90;;;;;;5005503;28;20214;-78
2022/08/02 06:48:37;;;;;;;5.20;2.15;;;23.80;99.90;;;;;;5004863;28;20211;-78
2022/08/02 06:51:03;;;;;;;4.25;2.00;;;24.30;99.90;;;;;;5005733;28;20211;-78
2022/08/02 06:53:29;;;;;;;3.28;1.77;;;23.90;99.90;;;;;;5004910;28;20195;-79
2022/08/02 06:55:55;;;;;;;6.45;1.88;;;23.70;99.90;;;;;;5004321;28;20198;-78
2022/08/02 06:58:20;;;;;;;5.35;2.00;;;24.50;99.90;;;;;;5008087;28;20681;-78
2022/08/02 07:00:46;;;;;;;4.38;1.67;;;24.70;99.90;;;;;;5009278;28;20214;-79
2022/08/02 07:03:12;;;;;;;5.65;2.00;;;24.50;99.90;;;;;;5009324;28;20207;-78
2022/08/02 07:05:38;;;;;;;4.47;1.77;;;24.10;99.90;;;;;;5009907;28;20176;-76
2022/08/02 07:08:04;;;;;;;5.25;1.92;;;24.70;99.90;;;;;;5007951;28;20270;-78
2022/08/02 07:10:30;;;;;;;4.90;2.10;;;25.00;99.90;;;;;;5009473;28;20249;-76
2022/08/02 07:12:55;;;;;;;6.07;2.10;;;24.50;99.90;;;;;;5009190;28;20207;-77
2022/08/02 07:15:21;;;;;;;5.68;1.83;;;24.80;99.90;;;;;;5007989;28;20182;-78
2022/08/02 07:17:47;;;;;;;5.03;1.75;;;24.60;99.90;;;;;;5009014;28;20673;-77
2022/08/02 07:20:13;;;;;;;4.60;2.03;;;24.60;99.90;;;;;;5005179;28;20250;-77
2022/08/02 07:22:40;;;;;;;5.40;2.28;;;24.90;99.90;;;;;;5006533;28;20471;-77
2022/08/02 07:25:06;;;;;;;6.40;2.08;;;24.00;99.90;;;;;;5009358;28;20258;-78
2022/08/02 07:27:32;;;;;;;4.68;1.92;;;23.60;1.00;;;;;;5008049;28;20175;-78
2022/08/02 07:29:58;;;;;;;4.70;2.28;;;22.80;1.00;;;;;;5007059;28;20188;-78
2022/08/02 07:32:27;;;;;;;5.05;2.25;;;22.30;1.00;;;;;;5007289;28;20547;-78
2022/08/02 07:34:53;;;;;;;5.18;2.05;;;22.10;1.00;;;;;;5008832;28;20191;-78
2022/08/02 07:37:24;;;;;;;4.50;1.73;;;22.30;99.90;;;;;;5008574;28;20294;-76
2022/08/02 07:39:50;;;;;;;4.03;1.90;;;22.30;99.90;;;;;;5008785;28;20646;-77
2022/08/02 07:42:15;;;;;;;6.35;2.00;;;22.10;99.90;;;;;;5009270;28;20219;-77
2022/08/02 07:44:41;;;;;;;5.88;2.13;;;21.80;99.90;;;;;;5008208;28;20222;-76
2022/08/02 07:47:07;;;;;;;5.03;2.05;;;21.90;1.00;;;;;;5009392;28;20564;-78
2022/08/02 07:49:32;;;;;;;5.50;1.98;;;21.90;1.00;;;;;;5007757;28;20514;-78
2022/08/02 07:51:58;;;;;;;3.95;1.80;;;21.90;1.00;;;;;;5009428;28;20212;-78
2022/08/02 07:54:24;;;;;;;3.78;1.70;;;21.90;1.00;;;;;;5007918;28;20199;-78
2022/08/02 07:56:52;;;;;;;4.60;1.90;;;22.00;99.90;;;;;;5009582;28;20187;-78
2022/08/02 07:59:17;;;;;;;5.38;2.33;;;21.90;99.90;;;;;;5008436;28;20187;-78
2022/08/02 08:01:43;;;;;;;5.93;2.65;;;22.00;99.90;;;;;;5008587;28;20215;-78
2022/08/02 08:04:09;;;;;;;4.53;2.10;;;22.00;1.00;;;;;;5008166;28;20187;-77
2022/08/02 08:06:34;;;;;;;5.82;2.20;;;22.00;99.90;;;;;;5008263;28;20187;-78
2022/08/02 08:09:00;;;;;;;4.38;1.92;;;22.00;99.90;;;;;;5006957;28;20182;-77
2022/08/02 08:11:26;;;;;;;5.60;2.10;;;22.00;1.00;;;;;;5007116;28;20234;-78
2022/08/02 08:13:51;;;;;;;4.88;1.98;;;22.10;99.90;;;;;;5007029;28;20187;-77
2022/08/02 08:16:17;;;;;;;7.20;2.47;;;22.10;1.00;;;;;;5004072;28;20187;-77
2022/08/02 08:18:43;;;;;;;7.00;2.20;;;22.20;1.00;;;;;;5002336;28;20183;-78
2022/08/02 08:21:09;;;;;;;5.28;2.20;;;22.20;35.80;;;;;;5008267;28;20689;-79
2022/08/02 08:23:36;;;;;;;5.55;2.60;;;22.20;99.90;;;;;;5008395;28;20294;-76
2022/08/02 08:26:02;;;;;;;3.17;1.75;;;22.10;99.90;;;;;;5008309;28;20266;-77
2022/08/02 08:28:28;;;;;;;3.75;2.00;;;22.50;99.90;;;;;;5008067;28;20187;-78
2022/08/02 08:30:53;;;;;;;8.35;2.20;;;22.50;2.40;;;;;;5008464;28;20187;-76
2022/08/02 08:33:19;;;;;;;3.80;2.15;;;22.30;1.00;;;;;;5008260;28;20583;-78
2022/08/02 08:35:44;;;;;;;2.28;1.70;;;22.50;61.30;;;;;;5008171;28;20218;-78
2022/08/02 08:38:10;;;;;;;3.75;1.83;;;22.20;1.00;;;;;;5006796;28;20191;-77
2022/08/02 08:40:36;;;;;;;5.63;2.10;;;22.40;29.20;;;;;;5006493;28;20254;-75
2022/08/02 08:43:02;;;;;;;4.45;2.00;;;22.30;99.90;;;;;;5007661;28;20203;-78
2022/08/02 08:45:28;;;;;;;3.28;2.00;;;22.50;99.90;;;;;;5007786;28;20557;-76
2022/08/02 08:48:00;;;;;;;5.63;2.00;;;22.40;1.00;;;;;;5008056;28;20190;-78
2022/08/02 08:50:28;;;;;;;3.40;1.80;;;22.30;97.80;;;;;;5007597;28;20702;-78
2022/08/02 08:53:05;;;;;;;6.47;2.50;;;22.30;99.90;;;;;;5009067;28;20615;-78
2022/08/02 08:55:33;;;;;;;3.30;1.80;;;22.40;99.90;;;;;;5008685;28;20175;-78
2022/08/02 08:58:00;;;;;;;6.38;2.70;;;22.50;99.90;;;;;;5006960;28;20342;-78
2022/08/02 09:00:26;;;;;;;4.65;2.10;;;22.50;94.20;;;;;;5008422;28;20191;-78
2022/08/02 09:02:52;;;;;;;4.13;1.90;;;22.60;1.00;;;;;;5008641;28;20196;-77
2022/08/02 09:05:18;;;;;;;4.78;2.10;;;22.60;99.90;;;;;;5008062;28;20262;-78
2022/08/02 09:07:48;;;;;;;3.60;1.83;;;22.80;1.00;;;;;;5007158;28;20264;-78
2022/08/02 09:10:43;;;;;;;3.60;2.10;;;22.80;99.90;;;;;;5008689;28;20695;-78
2022/08/02 09:13:16;;;;;;;5.57;2.10;;;22.90;99.90;;;;;;5017528;28;20207;-76
2022/08/02 09:15:44;;;;;;;3.00;1.92;;;23.00;1.00;;;;;;5007879;28;20176;-79
2022/08/02 09:18:11;;;;;;;3.38;1.92;;;23.10;1.00;;;;;;5008560;28;20176;-78
2022/08/02 09:20:56;;;;;;;2.53;1.85;;;23.20;1.00;;;;;;5006940;28;20258;-78
2022/08/02 09:23:22;;;;;;;5.38;2.00;;;23.40;1.00;;;;;;5008030;28;20207;-77
2022/08/02 09:26:15;;;;;;;3.38;2.15;;;23.60;1.00;;;;;;5008441;28;20175;-77
2022/08/02 09:28:43;;;;;;;3.80;2.08;;;23.50;1.00;;;;;;5005385;28;20642;-77
2022/08/02 09:31:11;;;;;;;3.42;2.00;;;23.30;1.00;;;;;;5007886;28;20242;-78
2022/08/02 09:33:38;;;;;;;3.95;2.20;;;23.30;1.00;;;;;;5008263;28;20274;-78
2022/08/02 09:36:07;;;;;;;2.45;2.00;;;23.40;1.00;;;;;;5008073;28;20179;-77
2022/08/02 09:38:34;;;;;;;3.38;1.77;;;23.50;99.90;;;;;;5003564;28;20333;-79
2022/08/02 09:41:00;;;;;;;3.15;1.80;;;23.50;99.90;;;;;;5002590;28;20207;-80
2022/08/02 09:43:41;;;;;;;3.72;2.00;;;23.60;99.90;;;;;;5002417;28;20326;-80
2022/08/02 09:46:24;;;;;;;2.97;2.00;;;23.70;99.90;;;;;;5002672;28;20245;-81
2022/08/02 09:48:50;;;;;;;3.45;2.40;;;23.80;1.00;;;;;;5002264;28;20318;-80
2022/08/02 09:51:37;;;;;;;2.70;1.73;;;23.80;99.90;;;;;;5001531;28;20285;-79
2022/08/02 09:54:10;;;;;;;2.30;2.10;;;23.90;99.90;;;;;;5001667;28;20579;-79
2022/08/02 09:56:57;;;;;;;3.40;1.75;;;23.90;99.90;;;;;;5001327;28;20183;-82
2022/08/02 09:59:24;;;;;;;3.72;2.33;;;24.00;99.90;;;;;;5001967;28;20183;-79
2022/08/02 10:01:51;;;;;;;3.33;2.00;;;24.00;99.90;;;;;;5002860;28;20215;-80
2022/08/02 10:04:20;;;;;;;2.88;1.63;;;24.00;99.90;;;;;;5002202;28;20646;-78
2022/08/02 10:06:45;;;;;;;3.78;2.10;;;24.00;99.90;;;;;;5002866;28;20319;-82
2022/08/02 10:09:12;;;;;;;4.43;2.10;;;24.00;99.90;;;;;;5002412;28;20725;-81
2022/08/02 10:11:38;;;;;;;3.10;2.13;;;24.10;99.90;;;;;;5002852;28;20571;-80
2022/08/02 10:14:06;;;;;;;2.70;1.65;;;24.20;99.90;;;;;;5002549;28;20179;-79
2022/08/02 10:16:38;;;;;;;3.67;1.75;;;24.10;99.90;;;;;;5001510;28;20283;-82
2022/08/02 10:19:04;;;;;;;2.78;1.90;;;24.20;99.90;;;;;;5004158;28;20184;-78
2022/08/02 10:21:46;;;;;;;3.15;1.83;;;24.30;99.90;;;;;;5007875;28;20212;-78
2022/08/02 10:24:17;;;;;;;2.83;2.00;;;24.30;99.90;;;;;;5006738;28;20199;-76
2022/08/02 10:26:45;;;;;;;3.28;1.85;;;24.30;99.90;;;;;;5008025;28;20210;-78
2022/08/02 10:29:15;;;;;;;2.38;1.77;;;24.40;99.90;;;;;;5006840;28;20188;-78
2022/08/02 10:31:50;;;;;;;3.97;1.73;;;24.30;99.90;;;;;;5007819;28;20203;-78
2022/08/02 10:34:19;;;;;;;3.30;1.70;;;24.40;99.90;;;;;;5010867;28;20193;-78
2022/08/02 10:36:47;;;;;;;2.90;2.10;;;24.50;99.90;;;;;;5011729;28;20187;-76
2022/08/02 10:39:13;;;;;;;2.28;2.08;;;24.30;96.50;;;;;;5010712;28;20176;-76
2022/08/02 10:41:50;;;;;;;2.45;1.77;;;24.10;98.50;;;;;;5007766;28;20234;-79
2022/08/02 10:44:23;;;;;;;3.28;1.90;;;24.30;97.70;;;;;;5007672;28;20657;-77
2022/08/02 10:46:49;;;;;;;3.72;1.98;;;24.30;54.80;;;;;;5010682;28;20566;-77
2022/08/02 10:49:16;;;;;;;2.40;2.17;;;24.30;75.00;;;;;;5009845;28;20210;-78
2022/08/02 10:52:01;;;;;;;2.30;2.10;;;24.40;22.20;;;;;;5009235;28;20215;-76
2022/08/02 10:54:30;;;;;;;1.98;1.85;;;24.40;23.30;;;;;;5010661;28;20179;-78
2022/08/02 10:56:57;;;;;;;2.40;1.90;;;24.30;15.00;;;;;;5010509;28;20223;-78
2022/08/02 10:59:26;;;;;;;3.05;1.95;;;24.50;1.10;;;;;;5009266;28;20190;-78
2022/08/02 11:01:59;;;;;;;2.70;2.00;;;24.60;9.30;;;;;;5009447;28;20219;-76
2022/08/02 11:04:35;;;;;;;2.60;2.08;;;24.50;1.00;;;;;;5010028;28;20183;-78
2022/08/02 11:07:30;;;;;;;2.00;1.90;;;24.50;24.50;;;;;;5008634;28;21029;-78
2022/08/02 11:09:58;;;;;;;2.35;2.15;;;24.60;32.60;;;;;;5009509;28;20270;-78
2022/08/02 11:12:24;;;;;;;3.92;2.05;;;24.50;1.00;;;;;;5009808;28;20553;-78
2022/08/02 11:15:04;;;;;;;7.18;2.28;;;24.50;17.30;;;;;;5009013;28;20450;-78
2022/08/02 11:17:51;;;;;;;3.15;2.60;;;24.60;1.00;;;;;;5009132;28;20195;-77
2022/08/02 11:20:19;;;;;;;7.47;2.90;;;24.70;1.00;;;;;;5015241;28;20183;-78
2022/08/02 11:22:46;;;;;;;4.38;2.80;;;24.70;2.00;;;;;;5007595;28;20223;-76
2022/08/02 11:25:20;;;;;;;3.13;2.20;;;24.70;1.90;;;;;;5008939;28;20194;-78
2022/08/02 11:27:49;;;;;;;5.57;2.67;;;24.80;1.00;;;;;;5008474;28;20183;-78
2022/08/02 11:30:15;;;;;;;5.38;2.30;;;24.70;1.00;;;;;;5009652;28;20186;-78
2022/08/02 11:32:41;;;;;;;2.53;1.98;;;24.70;1.00;;;;;;5008757;28;20199;-78
2022/08/02 11:35:07;;;;;;;2.55;2.00;;;24.90;1.00;;;;;;5009529;28;20283;-77
2022/08/02 11:37:40;;;;;;;2.42;2.00;;;24.80;1.00;;;;;;5008937;28;20270;-78
2022/08/02 11:40:35;;;;;;;2.72;2.53;;;24.90;1.00;;;;;;5006812;28;20222;-78
2022/08/02 11:43:01;;;;;;;2.95;2.38;;;24.90;1.00;;;;;;5006862;28;20196;-78
2022/08/02 11:45:26;;;;;;;2.80;2.17;;;24.90;1.00;;;;;;5007152;28;20190;-78
2022/08/02 11:47:53;;;;;;;3.10;1.85;;;24.90;1.00;;;;;;5008069;28;20188;-78
2022/08/02 11:50:23;;;;;;;2.28;2.08;;;25.00;1.00;;;;;;5008240;28;20534;-78
2022/08/02 11:52:49;;;;;;;2.30;1.88;;;25.10;1.00;;;;;;5007762;28;20206;-78
2022/08/02 11:55:15;;;;;;;3.25;2.13;;;25.10;1.00;;;;;;5006495;28;20205;-78
2022/08/02 11:57:40;;;;;;;2.92;2.20;;;25.20;1.00;;;;;;5007415;28;20175;-78
2022/08/02 12:00:17;;;;;;;2.35;1.70;;;25.40;1.00;;;;;;5008635;28;20183;-78
2022/08/02 12:02:47;;;;;;;3.05;1.80;;;25.40;1.00;;;;;;5007986;28;20581;-78
2022/08/02 12:05:22;;;;;;;2.20;1.90;;;25.50;1.00;;;;;;5007903;28;20187;-78
2022/08/02 12:07:50;;;;;;;3.33;1.60;;;25.50;1.00;;;;;;5008067;28;20218;-77
2022/08/02 12:10:18;;;;;;;2.97;1.80;;;25.60;1.00;;;;;;5007908;28;20227;-78
2022/08/02 12:12:58;;;;;;;1.90;1.75;;;25.50;1.00;;;;;;5007750;28;20199;-78
2022/08/02 12:15:33;;;;;;;1.67;1.42;;;25.60;1.00;;;;;;5007965;28;20190;-78
2022/08/02 12:20:44;;;;;;;2.58;1.73;;;25.70;1.00;;;;;;5008140;28;20221;-78
2022/08/02 12:23:10;;;;;;;1.92;1.75;;;25.60;1.00;;;;;;5007705;28;20199;-78
2022/08/02 12:25:36;;;;;;;5.05;2.17;;;25.60;1.00;;;;;;5007157;28;20192;-77
2022/08/02 12:28:19;;;;;;;3.78;1.92;;;25.60;1.00;;;;;;5007483;28;20574;-78
2022/08/02 12:30:53;;;;;;;2.22;1.80;;;25.70;1.00;;;;;;5006049;28;20278;-77
2022/08/02 12:33:20;;;;;;;4.93;2.00;;;25.90;1.00;;;;;;5007597;28;20258;-78
2022/08/02 12:35:45;;;;;;;2.17;1.83;;;26.10;1.00;;;;;;5005523;28;20192;-76
2022/08/02 12:38:11;;;;;;;2.10;1.90;;;26.00;1.00;;;;;;5004087;28;20254;-76
2022/08/02 12:40:37;;;;;;;1.95;1.73;;;26.00;1.00;;;;;;5004655;28;20221;-78
2022/08/02 12:43:05;;;;;;;2.80;1.80;;;26.00;1.00;;;;;;5006342;28;20282;-78
2022/08/02 12:45:45;;;;;;;2.20;1.60;;;26.20;1.00;;;;;;5005224;28;20186;-78
2022/08/02 12:48:11;;;;;;;2.47;1.70;;;26.20;1.00;;;;;;5007394;28;20234;-78
2022/08/02 12:50:37;;;;;;;1.60;1.50;;;26.30;1.00;;;;;;5005914;28;20670;-77
2022/08/02 12:53:13;;;;;;;1.65;1.55;;;26.30;1.00;;;;;;5007141;28;20211;-76
2022/08/02 12:55:50;;;;;;;2.60;1.98;;;26.30;1.00;;;;;;5012261;28;20175;-77
2022/08/02 12:58:15;;;;;;;5.82;2.35;;;26.30;1.00;;;;;;5006334;28;20404;-78
2022/08/02 13:00:42;;;;;;;4.30;2.10;;;26.60;1.00;;;;;;5006164;28;20180;-78
2022/08/02 13:03:08;;;;;;;3.55;2.10;;;26.60;1.00;;;;;;5005180;28;20203;-78
2022/08/02 13:05:35;;;;;;;2.60;1.55;;;26.80;1.00;;;;;;5006779;28;20491;-78